CCZ3 weather

Clarenville Airport
Clarenville, Newfoundland and Labrador, Canada

Public forecast

Using degrees Celsius for public forecast. Weather courtesy of forecast.io.

Closest aviation weather report (METAR) to Clarenville Airport

Closest report is Gander International Airport, 47.3 nm (87.6 km) NNW. Retrieved 2020/06/02 23:22 UTC (22 minutes ago):

CYQX 022322Z 11022G30KT 3SM -RA BR BKN003 OVC010 11/11 A2975 RMK SF6SC2 SLP080

Closest aviation forecast (TAF) to Clarenville Airport

Closest forecast is Gander International Airport, 47.3 nm (87.6 km) NNW. Retrieved 2020/06/02 18:39 UTC (5 hours ago):

TAF CYQX 021738Z 0218/0318 12020G30KT 3SM -RA -DZ BR BKN008 OVC015 TEMPO 0218/0220 P6SM -RA SCT008 OVC015 FM022000 13020G30KT 5SM -RA BR BKN005 OVC010 TEMPO 0220/0303 P6SM NSW SCT005 OVC010 FM030300 13012G22KT 1SM -RA BR SCT002 OVC004 BECMG 0306/0308 20010G20KT FM031000 20012G22KT 3SM -RA BR BKN020 OVC060 TEMPO 0310/0312 P6SM NSW BKN025 FM031200 21012G22KT P6SM BKN025 BECMG 0315/0317 20018G28KT RMK NXT FCST BY 030000Z